createdAt,value
2019-02-20T00:02:01.944Z,89.40
2019-02-20T00:04:34.965Z,90.17
2019-02-20T00:07:07.807Z,90.56
2019-02-20T00:09:36.887Z,90.70
2019-02-20T00:12:07.187Z,89.96
2019-02-20T00:14:38.544Z,90.25
2019-02-20T00:17:07.664Z,90.05
2019-02-20T00:19:36.780Z,90.13
2019-02-20T00:22:08.035Z,90.78
2019-02-20T00:24:37.241Z,91.94
2019-02-20T00:27:06.363Z,91.97
2019-02-20T00:29:37.530Z,91.56
2019-02-20T00:32:07.519Z,91.54
2019-02-20T00:34:38.718Z,90.91
2019-02-20T00:37:07.816Z,90.19
2019-02-20T00:39:36.928Z,89.60
2019-02-20T00:42:06.061Z,89.53
2019-02-20T00:45:07.120Z,89.11
2019-02-20T00:47:49.554Z,88.27
2019-02-20T00:50:22.233Z,88.16
2019-02-20T00:53:11.169Z,88.24
2019-02-20T00:55:40.270Z,88.15
2019-02-20T00:58:09.387Z,88.13
2019-02-20T01:00:43.348Z,87.87
2019-02-20T01:03:15.585Z,88.06
2019-02-20T01:05:44.641Z,87.47
2019-02-20T01:08:15.288Z,87.28
2019-02-20T01:10:44.453Z,87.18
2019-02-20T01:13:13.601Z,86.96
2019-02-20T01:15:42.793Z,87.28
2019-02-20T01:18:11.910Z,87.19
2019-02-20T01:20:41.037Z,87.10
2019-02-20T01:23:10.117Z,87.82
2019-02-20T01:25:43.082Z,88.15
2019-02-20T01:28:12.663Z,87.56
2019-02-20T01:30:43.380Z,87.31
2019-02-20T01:33:16.557Z,88.60
2019-02-20T01:35:47.322Z,88.87
2019-02-20T01:38:18.245Z,88.79
2019-02-20T01:40:48.512Z,88.85
2019-02-20T01:43:17.801Z,88.66
2019-02-20T01:45:46.918Z,87.47
2019-02-20T01:48:15.972Z,87.77
2019-02-20T01:50:45.059Z,87.85
2019-02-20T01:53:14.373Z,87.07
2019-02-20T01:55:44.092Z,87.50
2019-02-20T01:58:13.406Z,87.53
2019-02-20T02:00:42.611Z,87.42
2019-02-20T02:03:16.055Z,87.88
2019-02-20T02:05:45.264Z,87.75
2019-02-20T02:08:16.972Z,87.18
2019-02-20T02:10:46.172Z,87.02
2019-02-20T02:13:16.815Z,86.51
2019-02-20T02:15:47.133Z,86.92
2019-02-20T02:18:16.341Z,86.45
2019-02-20T02:20:45.480Z,87.19
2019-02-20T02:23:19.876Z,87.29
2019-02-20T02:25:47.789Z,87.53
2019-02-20T02:28:18.029Z,86.91
2019-02-20T02:30:49.137Z,87.70
2019-02-20T02:33:18.339Z,86.64
2019-02-20T02:35:49.875Z,87.68
2019-02-20T02:38:18.959Z,87.13
2019-02-20T02:40:49.329Z,87.59
2019-02-20T02:43:18.385Z,87.55
2019-02-20T02:45:47.507Z,87.96
2019-02-20T02:48:16.587Z,87.85
2019-02-20T02:50:45.807Z,87.68
2019-02-20T02:53:14.962Z,88.16
2019-02-20T02:55:44.100Z,87.67
2019-02-20T02:58:15.456Z,88.28
2019-02-20T03:00:44.533Z,88.15
2019-02-20T03:03:13.663Z,87.34
2019-02-20T03:05:42.835Z,87.37
2019-02-20T03:08:11.943Z,86.64
2019-02-20T03:10:41.091Z,85.98
2019-02-20T03:13:11.216Z,86.81
2019-02-20T03:15:40.330Z,87.66
2019-02-20T03:18:09.429Z,88.28
2019-02-20T03:20:38.493Z,87.69
2019-02-20T03:23:07.673Z,87.54
2019-02-20T03:25:36.736Z,88.07
2019-02-20T03:28:05.881Z,88.03
2019-02-20T03:30:34.985Z,88.29
2019-02-20T03:33:04.119Z,88.09
2019-02-20T03:35:35.586Z,86.80
2019-02-20T03:38:07.015Z,87.21
2019-02-20T03:40:37.374Z,86.70
2019-02-20T03:43:06.516Z,86.92
2019-02-20T03:45:35.564Z,86.10
2019-02-20T03:48:04.708Z,87.07
2019-02-20T03:50:33.807Z,86.94
2019-02-20T03:53:05.140Z,86.54
2019-02-20T03:55:34.210Z,86.83
2019-02-20T03:58:04.404Z,86.93
2019-02-20T04:00:33.809Z,85.97
2019-02-20T04:03:02.949Z,88.08
2019-02-20T04:05:32.055Z,88.97
2019-02-20T04:08:01.207Z,89.43
2019-02-20T04:10:30.275Z,88.39
2019-02-20T04:12:59.358Z,87.92
2019-02-20T04:15:28.454Z,87.08
2019-02-20T04:17:57.578Z,86.37
2019-02-20T04:20:26.697Z,86.37
2019-02-20T04:22:55.859Z,86.00
2019-02-20T04:25:28.715Z,86.37
2019-02-20T04:28:00.261Z,86.80
2019-02-20T04:30:30.458Z,86.86
2019-02-20T04:32:59.591Z,87.86
2019-02-20T04:35:28.643Z,88.79
2019-02-20T04:38:01.713Z,89.79
2019-02-20T04:40:32.152Z,90.28
2019-02-20T04:43:01.317Z,90.35
2019-02-20T04:45:30.535Z,91.18
2019-02-20T04:48:00.231Z,91.31
2019-02-20T04:50:29.318Z,90.82
2019-02-20T04:52:58.431Z,89.67
2019-02-20T04:55:27.570Z,91.73
2019-02-20T04:58:19.763Z,92.25
2019-02-20T05:00:50.278Z,94.06
2019-02-20T05:03:19.500Z,94.15
2019-02-20T05:05:48.574Z,95.75
2019-02-20T05:08:17.661Z,95.57
2019-02-20T05:10:46.730Z,96.15
2019-02-20T05:13:15.877Z,96.00
2019-02-20T05:15:44.983Z,94.32
2019-02-20T05:18:16.427Z,95.74
2019-02-20T05:20:45.527Z,96.75
2019-02-20T05:23:14.624Z,96.46
2019-02-20T05:25:43.739Z,95.72
2019-02-20T05:28:12.817Z,97.09
2019-02-20T05:30:41.912Z,96.97
2019-02-20T05:33:11.220Z,97.18
2019-02-20T05:35:40.337Z,97.05
2019-02-20T05:38:09.442Z,96.14
2019-02-20T05:40:38.579Z,95.97
2019-02-20T05:43:10.025Z,96.37
2019-02-20T05:45:39.192Z,95.82
2019-02-20T05:48:08.437Z,95.49
2019-02-20T05:50:37.537Z,95.29
2019-02-20T05:53:06.756Z,94.60
2019-02-20T05:55:35.877Z,93.74
2019-02-20T05:58:04.942Z,93.59
2019-02-20T06:00:34.021Z,92.86
2019-02-20T06:03:04.864Z,92.73
2019-02-20T06:05:33.906Z,92.97
2019-02-20T06:08:03.024Z,91.98
2019-02-20T06:10:32.267Z,91.84
2019-02-20T06:13:05.306Z,92.07
2019-02-20T06:15:35.599Z,91.58
2019-02-20T06:18:06.988Z,91.39
2019-02-20T06:20:37.644Z,93.56
2019-02-20T06:23:06.731Z,93.93
2019-02-20T06:25:35.886Z,93.70
2019-02-20T06:28:04.966Z,93.35
2019-02-20T06:30:36.363Z,93.42
2019-02-20T06:33:05.423Z,93.21
2019-02-20T06:35:34.613Z,92.79
2019-02-20T06:38:03.687Z,92.84
2019-02-20T06:40:32.824Z,93.07
2019-02-20T06:43:01.958Z,93.28
2019-02-20T06:45:33.105Z,92.95
2019-02-20T06:48:02.137Z,92.58
2019-02-20T06:50:32.375Z,92.61
2019-02-20T06:53:01.390Z,92.41
2019-02-20T06:55:30.569Z,92.21
2019-02-20T06:57:59.671Z,93.05
2019-02-20T07:00:31.052Z,93.15
2019-02-20T07:03:00.129Z,93.43
2019-02-20T07:05:33.832Z,93.37
2019-02-20T07:08:55.368Z,92.46
2019-02-20T07:12:17.097Z,93.50
2019-02-20T07:15:32.346Z,94.39
2019-02-20T07:18:40.198Z,94.31
2019-02-20T07:21:45.985Z,93.78
2019-02-20T07:24:29.018Z,96.40
2019-02-20T07:27:20.219Z,95.87
2019-02-20T07:30:02.829Z,97.27
2019-02-20T07:32:32.721Z,98.41
2019-02-20T07:35:01.858Z,99.38
2019-02-20T07:37:33.241Z,97.28
2019-02-20T07:40:06.706Z,99.66
2019-02-20T07:42:36.139Z,97.43
2019-02-20T07:45:05.586Z,97.84
2019-02-20T07:47:34.818Z,96.69
2019-02-20T07:50:03.963Z,98.15
2019-02-20T07:52:33.069Z,98.45
2019-02-20T07:55:02.172Z,97.84
2019-02-20T07:57:31.751Z,96.98
2019-02-20T08:00:02.907Z,97.52
2019-02-20T08:02:32.320Z,96.67
2019-02-20T08:05:01.412Z,95.96
2019-02-20T08:07:32.125Z,94.46
2019-02-20T08:10:03.751Z,95.87
2019-02-20T08:12:32.872Z,95.20
2019-02-20T08:15:03.821Z,95.34
2019-02-20T08:17:32.942Z,95.60
2019-02-20T08:20:02.926Z,96.00
2019-02-20T08:22:33.319Z,92.73
2019-02-20T08:25:02.501Z,93.36
2019-02-20T08:27:31.656Z,95.49
2019-02-20T08:30:01.990Z,96.54
2019-02-20T08:32:31.087Z,94.93
2019-02-20T08:35:00.263Z,95.71
2019-02-20T08:37:29.454Z,93.50
2019-02-20T08:39:58.501Z,89.62
2019-02-20T08:42:27.628Z,93.10
2019-02-20T08:44:56.720Z,91.76
2019-02-20T08:47:25.891Z,87.10
2019-02-20T08:49:54.967Z,87.75
2019-02-20T08:52:24.072Z,90.25
2019-02-20T08:54:53.085Z,88.80
2019-02-20T08:57:22.249Z,89.34
2019-02-20T08:59:51.825Z,86.40
2019-02-20T09:02:20.926Z,88.49
2019-02-20T09:04:50.007Z,92.07
2019-02-20T09:07:19.220Z,88.14
2019-02-20T09:09:48.324Z,89.00
2019-02-20T09:12:17.485Z,91.27
2019-02-20T09:14:46.571Z,88.00
2019-02-20T09:17:15.597Z,88.62
2019-02-20T09:19:44.697Z,89.53
2019-02-20T09:22:13.771Z,87.67
2019-02-20T09:24:42.910Z,91.01
2019-02-20T09:27:13.120Z,87.22
2019-02-20T09:29:42.255Z,90.91
2019-02-20T09:32:11.722Z,91.25
2019-02-20T09:34:40.859Z,92.51
2019-02-20T09:37:09.922Z,92.69
2019-02-20T09:39:39.322Z,93.13
2019-02-20T09:42:13.536Z,94.35
2019-02-20T09:44:51.625Z,93.42
2019-02-20T09:47:22.746Z,89.87
2019-02-20T09:49:52.925Z,86.27
2019-02-20T09:52:23.637Z,85.95
2019-02-20T09:54:52.702Z,86.58
2019-02-20T09:57:21.804Z,86.52
2019-02-20T09:59:53.222Z,86.98
2019-02-20T10:02:22.283Z,87.08
2019-02-20T10:04:54.996Z,86.16
2019-02-20T10:07:24.083Z,89.97
2019-02-20T10:09:54.330Z,87.06
2019-02-20T10:12:23.382Z,83.84
2019-02-20T10:14:52.545Z,85.26
2019-02-20T10:17:21.594Z,84.07
2019-02-20T10:19:50.707Z,78.84
2019-02-20T10:22:19.786Z,76.91
2019-02-20T10:24:48.975Z,78.37
2019-02-20T10:27:18.041Z,75.92
2019-02-20T10:29:47.164Z,75.69
2019-02-20T10:32:16.289Z,74.32
2019-02-20T10:34:45.392Z,77.46
2019-02-20T10:37:14.491Z,78.33
2019-02-20T10:39:43.555Z,75.99
2019-02-20T10:42:12.679Z,71.53
2019-02-20T10:44:41.818Z,76.22
2019-02-20T10:47:10.982Z,72.70
2019-02-20T10:49:41.195Z,71.08
2019-02-20T10:52:10.728Z,64.89
2019-02-20T10:54:39.842Z,65.44
2019-02-20T10:57:10.426Z,66.75
2019-02-20T10:59:41.395Z,65.74
2019-02-20T11:02:10.725Z,66.55
2019-02-20T11:04:39.756Z,68.17
2019-02-20T11:07:08.978Z,67.18
2019-02-20T11:09:38.118Z,65.23
2019-02-20T11:12:07.258Z,65.42
2019-02-20T11:14:37.739Z,68.94
2019-02-20T11:17:06.991Z,68.42
2019-02-20T11:19:36.092Z,67.74
2019-02-20T11:22:05.793Z,66.25
2019-02-20T11:24:34.873Z,66.77
2019-02-20T11:27:04.883Z,64.45
2019-02-20T11:29:33.968Z,61.58
2019-02-20T11:32:03.052Z,59.78
2019-02-20T11:34:32.154Z,59.48
2019-02-20T11:37:03.637Z,60.93
2019-02-20T11:39:37.667Z,60.87
2019-02-20T11:42:04.478Z,62.41
2019-02-20T11:44:34.004Z,62.65
2019-02-20T11:47:04.818Z,63.54
2019-02-20T11:49:35.125Z,63.76
2019-02-20T11:52:04.489Z,61.94
2019-02-20T11:54:33.580Z,58.70
2019-02-20T11:57:02.795Z,58.19
2019-02-20T11:59:32.952Z,56.93
2019-02-20T12:02:02.076Z,57.07
2019-02-20T12:04:33.179Z,52.83
2019-02-20T12:07:02.218Z,53.57
2019-02-20T12:09:31.318Z,52.19
2019-02-20T12:12:00.421Z,52.74
2019-02-20T12:14:29.483Z,50.97
2019-02-20T12:16:58.564Z,52.31
2019-02-20T12:19:30.877Z,52.88
2019-02-20T12:21:59.963Z,51.21
2019-02-20T12:24:29.056Z,53.45
2019-02-20T12:26:58.118Z,52.34
2019-02-20T12:29:27.215Z,53.58
2019-02-20T12:31:56.312Z,53.76
2019-02-20T12:34:25.429Z,54.07
2019-02-20T12:36:54.497Z,54.99
2019-02-20T12:39:23.631Z,54.14
2019-02-20T12:41:57.874Z,52.33
2019-02-20T12:44:26.996Z,52.63
2019-02-20T12:46:56.072Z,52.47
2019-02-20T12:49:25.148Z,53.52
2019-02-20T12:51:55.676Z,55.48
2019-02-20T12:54:25.898Z,55.47
2019-02-20T12:56:55.225Z,52.80
2019-02-20T12:59:24.332Z,53.56
2019-02-20T13:01:53.600Z,54.15
2019-02-20T13:04:24.726Z,57.96
2019-02-20T13:06:59.480Z,57.56
2019-02-20T13:09:25.238Z,57.78
2019-02-20T13:11:55.617Z,58.97
2019-02-20T13:14:24.712Z,58.97
2019-02-20T13:16:53.785Z,59.57
2019-02-20T13:19:26.952Z,60.99
2019-02-20T13:21:57.361Z,61.08
2019-02-20T13:24:26.397Z,61.60
2019-02-20T13:26:55.443Z,60.86
2019-02-20T13:29:24.505Z,60.44
2019-02-20T13:31:53.562Z,61.13
2019-02-20T13:34:22.644Z,61.21
2019-02-20T13:36:51.717Z,59.56
2019-02-20T13:39:20.892Z,60.08
2019-02-20T13:41:52.553Z,60.60
2019-02-20T13:44:21.647Z,59.88
2019-02-20T13:46:50.764Z,59.62
2019-02-20T13:49:19.903Z,59.68
2019-02-20T13:51:48.953Z,59.67
2019-02-20T13:54:18.068Z,58.52
2019-02-20T13:56:47.957Z,59.48
2019-02-20T13:59:17.063Z,59.55
2019-02-20T14:01:47.343Z,58.64
2019-02-20T14:04:16.741Z,58.74
2019-02-20T14:06:45.839Z,59.42
2019-02-20T14:09:15.264Z,59.25
2019-02-20T14:11:44.437Z,59.64
2019-02-20T14:14:14.070Z,60.78
2019-02-20T14:16:43.139Z,61.73
2019-02-20T14:19:12.473Z,61.73
2019-02-20T14:21:41.586Z,61.36
2019-02-20T14:24:10.735Z,61.20
2019-02-20T14:26:39.834Z,61.12
2019-02-20T14:29:08.911Z,59.96
2019-02-20T14:31:38.246Z,60.38
2019-02-20T14:34:09.638Z,60.22
2019-02-20T14:36:38.880Z,60.25
2019-02-20T14:39:08.040Z,59.83
2019-02-20T14:41:37.182Z,59.97
2019-02-20T14:44:06.243Z,60.30
2019-02-20T14:46:36.324Z,60.39
2019-02-20T14:49:09.406Z,60.57
2019-02-20T14:51:38.332Z,60.23
2019-02-20T14:54:07.404Z,60.05
2019-02-20T14:56:36.519Z,58.33
2019-02-20T14:59:07.732Z,58.52
2019-02-20T15:01:36.877Z,58.12
2019-02-20T15:04:05.943Z,58.59
2019-02-20T15:06:34.989Z,58.86
2019-02-20T15:09:05.592Z,59.45
2019-02-20T15:11:34.699Z,61.41
2019-02-20T15:14:03.782Z,63.08
2019-02-20T15:16:36.971Z,63.76
2019-02-20T15:19:06.497Z,63.57
2019-02-20T15:21:36.889Z,63.50
2019-02-20T15:24:06.219Z,63.71
2019-02-20T15:26:35.334Z,64.00
2019-02-20T15:29:04.378Z,64.37
2019-02-20T15:31:37.262Z,63.92
2019-02-20T15:34:06.755Z,64.06
2019-02-20T15:36:35.899Z,64.36
2019-02-20T15:39:05.658Z,64.50
2019-02-20T15:41:36.327Z,64.72
2019-02-20T15:44:09.067Z,65.13
2019-02-20T15:46:40.718Z,65.04
2019-02-20T15:49:09.837Z,65.72
2019-02-20T15:51:39.103Z,65.76
2019-02-20T15:54:08.231Z,65.34
2019-02-20T15:56:37.347Z,66.41
2019-02-20T15:59:07.052Z,66.59
2019-02-20T16:01:36.220Z,66.72
2019-02-20T16:04:05.500Z,67.16
2019-02-20T16:06:34.626Z,67.39
2019-02-20T16:09:04.509Z,67.68
2019-02-20T16:11:33.597Z,67.92
2019-02-20T16:14:02.676Z,67.62
2019-02-20T16:16:31.813Z,68.30
2019-02-20T16:19:00.922Z,68.19
2019-02-20T16:21:30.050Z,68.70
2019-02-20T16:23:59.220Z,69.23
2019-02-20T16:26:28.316Z,68.54
2019-02-20T16:28:57.692Z,68.81
2019-02-20T16:31:44.918Z,69.31
2019-02-20T16:34:15.674Z,69.69
2019-02-20T16:36:45.107Z,70.13
2019-02-20T16:39:15.496Z,70.72
2019-02-20T16:42:04.255Z,71.43
2019-02-20T16:44:33.776Z,71.39
2019-02-20T16:47:02.827Z,71.87
2019-02-20T16:49:32.928Z,72.53
2019-02-20T16:52:05.043Z,72.94
2019-02-20T16:54:34.925Z,73.25
2019-02-20T16:57:06.294Z,73.97
2019-02-20T16:59:35.598Z,74.23
2019-02-20T17:02:07.631Z,74.36
2019-02-20T17:04:36.732Z,74.79
2019-02-20T17:07:08.069Z,75.54
2019-02-20T17:09:39.562Z,76.32
2019-02-20T17:12:08.737Z,76.49
2019-02-20T17:14:37.877Z,76.56
2019-02-20T17:17:07.055Z,77.33
2019-02-20T17:19:36.215Z,77.87
2019-02-20T17:22:07.329Z,78.15
2019-02-20T17:24:41.723Z,79.30
2019-02-20T17:27:12.848Z,79.56
2019-02-20T17:29:42.053Z,80.29
2019-02-20T17:32:12.727Z,80.40
2019-02-20T17:34:41.928Z,79.89
2019-02-20T17:37:11.160Z,80.16
2019-02-20T17:39:40.541Z,80.64
2019-02-20T17:42:09.628Z,80.79
2019-02-20T17:44:38.725Z,80.94
2019-02-20T17:47:07.911Z,81.78
2019-02-20T17:49:38.220Z,82.38
2019-02-20T17:52:09.325Z,82.57
2019-02-20T17:54:41.070Z,83.05
2019-02-20T17:57:12.173Z,83.04
2019-02-20T17:59:41.217Z,83.41
2019-02-20T18:02:11.386Z,84.35
2019-02-20T18:04:58.446Z,84.31
2019-02-20T18:07:49.638Z,84.63
2019-02-20T18:10:14.942Z,84.75
2019-02-20T18:12:45.480Z,84.62
2019-02-20T18:15:22.448Z,86.10
2019-02-20T18:17:52.700Z,85.61
2019-02-20T18:20:25.236Z,85.40
2019-02-20T18:23:00.267Z,85.15
2019-02-20T18:25:30.439Z,85.50
2019-02-20T18:27:59.920Z,85.72
2019-02-20T18:30:38.710Z,86.34
2019-02-20T18:33:08.779Z,86.05
2019-02-20T18:35:41.950Z,86.22
2019-02-20T18:38:11.794Z,86.11
2019-02-20T18:40:42.632Z,86.52
2019-02-20T18:43:12.188Z,86.69
2019-02-20T18:45:41.629Z,86.61
2019-02-20T18:48:14.922Z,86.56
2019-02-20T18:50:45.363Z,86.24
2019-02-20T18:53:14.471Z,86.17
2019-02-20T18:55:43.656Z,87.12
2019-02-20T18:58:12.826Z,86.71
2019-02-20T19:00:42.183Z,86.96
2019-02-20T19:03:14.862Z,87.19
2019-02-20T19:05:43.997Z,87.05
2019-02-20T19:08:41.520Z,86.35
2019-02-20T19:11:40.207Z,86.66
2019-02-20T19:14:52.801Z,86.81
2019-02-20T19:18:13.029Z,86.57
2019-02-20T19:20:49.322Z,86.57
2019-02-20T19:24:10.937Z,86.49
2019-02-20T19:27:30.211Z,88.26
2019-02-20T19:30:40.468Z,87.79
2019-02-20T19:33:46.390Z,88.30
2019-02-20T19:36:58.555Z,86.67
2019-02-20T19:40:01.575Z,88.88
2019-02-20T19:43:10.139Z,89.93
2019-02-20T19:46:26.298Z,89.30
2019-02-20T19:49:45.594Z,88.84
2019-02-20T19:52:47.446Z,88.79
2019-02-20T19:55:30.889Z,89.11
2019-02-20T19:58:24.143Z,88.81
2019-02-20T20:01:39.785Z,88.60
2019-02-20T20:04:24.782Z,87.32
2019-02-20T20:07:27.374Z,89.19
2019-02-20T20:11:02.161Z,88.66
2019-02-20T20:14:05.191Z,88.34
2019-02-20T20:16:59.877Z,89.87
2019-02-20T20:19:45.121Z,90.42
2019-02-20T20:23:07.792Z,90.07
2019-02-20T20:26:11.642Z,89.80
2019-02-20T20:29:26.225Z,90.21
2019-02-20T20:32:21.781Z,90.13
2019-02-20T20:35:54.042Z,89.56
2019-02-20T20:38:45.164Z,88.43
2019-02-20T20:42:04.478Z,88.95
2019-02-20T20:45:02.900Z,88.89
2019-02-20T20:48:11.979Z,87.99
2019-02-20T20:50:47.482Z,87.74
2019-02-20T20:54:01.065Z,88.78
2019-02-20T20:57:01.106Z,89.37
2019-02-20T21:00:26.409Z,89.93
2019-02-20T21:03:02.477Z,88.82
2019-02-20T21:06:11.877Z,89.72
2019-02-20T21:09:10.278Z,89.85
2019-02-20T21:12:22.616Z,90.15
2019-02-20T21:15:08.294Z,90.21
2019-02-20T21:18:11.706Z,90.07
2019-02-20T21:21:20.746Z,90.07
2019-02-20T21:24:54.385Z,90.33
2019-02-20T21:28:05.362Z,90.20
2019-02-20T21:31:03.256Z,88.60
2019-02-20T21:34:14.584Z,88.75
2019-02-20T21:37:15.879Z,89.26
2019-02-20T21:40:18.188Z,89.44
2019-02-20T21:43:08.289Z,90.06
2019-02-20T21:45:50.986Z,90.06
2019-02-20T21:48:58.438Z,90.71
2019-02-20T21:51:57.922Z,90.78
2019-02-20T21:55:05.480Z,92.07
2019-02-20T21:58:21.580Z,92.28
2019-02-20T22:01:20.008Z,91.91
2019-02-20T22:04:27.386Z,90.67
2019-02-20T22:07:43.427Z,90.53
2019-02-20T22:11:11.251Z,89.83
2019-02-20T22:14:38.525Z,89.33
2019-02-20T22:17:27.382Z,89.13
2019-02-20T22:20:32.928Z,88.96
2019-02-20T22:23:29.265Z,88.17
2019-02-20T22:26:35.788Z,89.60
2019-02-20T22:29:49.305Z,89.88
2019-02-20T22:32:46.399Z,90.22
2019-02-20T22:35:36.865Z,90.40
2019-02-20T22:38:42.858Z,90.61
2019-02-20T22:41:19.391Z,90.58
2019-02-20T22:44:26.104Z,90.67
2019-02-20T22:47:11.063Z,90.38
2019-02-20T22:50:15.054Z,89.73
2019-02-20T22:53:23.299Z,89.38
2019-02-20T22:56:48.797Z,89.40
2019-02-20T23:00:02.645Z,89.09
2019-02-20T23:03:28.306Z,90.10
2019-02-20T23:06:33.299Z,89.76
2019-02-20T23:09:49.728Z,90.00
2019-02-20T23:12:39.690Z,88.72
2019-02-20T23:15:08.813Z,89.83
2019-02-20T23:17:39.937Z,89.89
2019-02-20T23:20:11.364Z,89.13
2019-02-20T23:22:41.589Z,89.08
2019-02-20T23:25:10.885Z,89.08
2019-02-20T23:27:40.123Z,88.76
2019-02-20T23:30:12.997Z,89.40
2019-02-20T23:32:43.321Z,88.90
2019-02-20T23:35:14.846Z,89.12
2019-02-20T23:37:44.072Z,90.05
2019-02-20T23:40:13.195Z,90.32
2019-02-20T23:42:45.521Z,90.94
2019-02-20T23:45:16.280Z,90.08
2019-02-20T23:47:45.475Z,89.75
2019-02-20T23:50:14.674Z,89.43
2019-02-20T23:52:45.132Z,89.23
2019-02-20T23:55:17.706Z,88.85
2019-02-20T23:57:46.994Z,89.08
